createdAt,value
2023-04-29T00:01:07.466Z,100.00
2023-04-29T00:03:36.055Z,100.00
2023-04-29T00:06:04.435Z,100.00
2023-04-29T00:08:32.639Z,100.00
2023-04-29T00:11:00.792Z,100.00
2023-04-29T00:13:28.894Z,100.00
2023-04-29T00:15:58.631Z,100.00
2023-04-29T00:18:26.746Z,100.00
2023-04-29T00:20:54.901Z,100.00
2023-04-29T00:23:23.086Z,100.00
2023-04-29T00:25:53.595Z,100.00
2023-04-29T00:28:21.898Z,100.00
2023-04-29T00:30:50.138Z,100.00
2023-04-29T00:33:19.714Z,100.00
2023-04-29T00:35:48.320Z,100.00
2023-04-29T00:38:16.585Z,100.00
2023-04-29T00:40:44.939Z,100.00
2023-04-29T00:43:13.264Z,100.00
2023-04-29T00:45:41.524Z,100.00
2023-04-29T00:48:09.837Z,100.00
2023-04-29T00:50:39.482Z,100.00
2023-04-29T00:53:08.212Z,100.00
2023-04-29T00:55:38.457Z,100.00
2023-04-29T00:58:06.705Z,100.00
2023-04-29T01:00:34.990Z,100.00
2023-04-29T01:03:04.371Z,100.00
2023-04-29T01:05:33.119Z,100.00
2023-04-29T01:08:18.441Z,100.00
2023-04-29T01:10:54.476Z,100.00
2023-04-29T01:13:31.853Z,100.00
2023-04-29T01:16:03.990Z,100.00
2023-04-29T01:18:38.086Z,100.00
2023-04-29T01:21:06.370Z,100.00
2023-04-29T01:23:35.833Z,100.00
2023-04-29T01:26:05.720Z,100.00
2023-04-29T01:28:46.127Z,100.00
2023-04-29T01:31:21.701Z,100.00
2023-04-29T01:33:56.524Z,100.00
2023-04-29T01:36:35.644Z,100.00
2023-04-29T01:39:15.082Z,100.00
2023-04-29T01:41:45.759Z,100.00
2023-04-29T01:44:18.006Z,100.00
2023-04-29T01:46:51.824Z,100.00
2023-04-29T01:49:22.338Z,100.00
2023-04-29T01:51:50.758Z,100.00
2023-04-29T01:54:21.154Z,100.00
2023-04-29T01:56:49.670Z,100.00
2023-04-29T01:59:17.830Z,100.00
2023-04-29T02:01:45.923Z,100.00
2023-04-29T02:04:14.067Z,100.00
2023-04-29T02:06:42.278Z,100.00
2023-04-29T02:09:10.414Z,100.00
2023-04-29T02:11:39.990Z,100.00
2023-04-29T02:14:08.174Z,100.00
2023-04-29T02:16:36.361Z,100.00
2023-04-29T02:19:04.586Z,100.00
2023-04-29T02:21:33.015Z,100.00
2023-04-29T02:24:01.113Z,100.00
2023-04-29T02:26:29.239Z,100.00
2023-04-29T02:28:58.878Z,100.00
2023-04-29T02:31:27.021Z,100.00
2023-04-29T02:33:55.761Z,100.00
2023-04-29T02:36:24.751Z,100.00
2023-04-29T02:38:55.311Z,100.00
2023-04-29T02:41:23.748Z,100.00
2023-04-29T02:43:51.900Z,100.00
2023-04-29T02:46:21.565Z,100.00
2023-04-29T02:48:49.787Z,100.00
2023-04-29T02:51:17.999Z,100.00
2023-04-29T02:53:46.162Z,100.00
2023-04-29T02:56:14.256Z,100.00
2023-04-29T02:58:42.959Z,100.00
2023-04-29T03:01:11.355Z,100.00
2023-04-29T03:03:41.211Z,100.00
2023-04-29T03:06:09.575Z,100.00
2023-04-29T03:08:37.730Z,100.00
2023-04-29T03:11:05.934Z,100.00
2023-04-29T03:13:34.092Z,100.00
2023-04-29T03:16:02.306Z,100.00
2023-04-29T03:18:30.484Z,100.00
2023-04-29T03:21:00.196Z,100.00
2023-04-29T03:23:28.372Z,100.00
2023-04-29T03:25:56.875Z,100.00
2023-04-29T03:28:25.188Z,100.00
2023-04-29T03:30:53.357Z,100.00
2023-04-29T03:33:21.537Z,100.00
2023-04-29T03:35:49.692Z,100.00
2023-04-29T03:38:19.296Z,100.00
2023-04-29T03:40:47.449Z,100.00
2023-04-29T03:43:15.596Z,100.00
2023-04-29T03:45:43.765Z,100.00
2023-04-29T03:48:12.639Z,100.00
2023-04-29T03:50:40.795Z,100.00
2023-04-29T03:53:09.095Z,100.00
2023-04-29T03:55:38.640Z,100.00
2023-04-29T03:58:06.775Z,100.00
2023-04-29T04:00:35.036Z,100.00
2023-04-29T04:03:05.544Z,100.00
2023-04-29T04:05:34.138Z,100.00
2023-04-29T04:08:02.334Z,100.00
2023-04-29T04:10:30.533Z,100.00
2023-04-29T04:13:00.063Z,100.00
2023-04-29T04:15:28.250Z,100.00
2023-04-29T04:17:56.492Z,100.00
2023-04-29T04:20:24.640Z,100.00
2023-04-29T04:22:54.888Z,100.00
2023-04-29T04:25:23.035Z,100.00
2023-04-29T04:27:51.232Z,100.00
2023-04-29T04:30:20.920Z,100.00
2023-04-29T04:32:49.186Z,100.00
2023-04-29T04:35:17.404Z,100.00
2023-04-29T04:37:45.598Z,100.00
2023-04-29T04:40:14.835Z,100.00
2023-04-29T04:42:42.947Z,100.00
2023-04-29T04:45:12.082Z,100.00
2023-04-29T04:47:43.315Z,100.00
2023-04-29T04:50:12.024Z,100.00
2023-04-29T04:52:40.583Z,100.00
2023-04-29T04:55:09.985Z,100.00
2023-04-29T04:57:38.115Z,100.00
2023-04-29T05:00:07.584Z,100.00
2023-04-29T05:02:36.106Z,100.00
2023-04-29T05:05:06.392Z,100.00
2023-04-29T05:07:36.067Z,100.00
2023-04-29T05:10:04.898Z,100.00
2023-04-29T05:12:33.237Z,100.00
2023-04-29T05:15:01.441Z,100.00
2023-04-29T05:17:29.684Z,100.00
2023-04-29T05:19:58.061Z,100.00
2023-04-29T05:22:27.666Z,100.00
2023-04-29T05:25:02.590Z,100.00
2023-04-29T05:27:31.157Z,100.00
2023-04-29T05:29:59.368Z,100.00
2023-04-29T05:32:27.640Z,100.00
2023-04-29T05:34:55.884Z,100.00
2023-04-29T05:37:24.281Z,100.00
2023-04-29T05:39:54.093Z,100.00
2023-04-29T05:42:23.616Z,100.00
2023-04-29T05:44:52.115Z,100.00
2023-04-29T05:47:20.435Z,100.00
2023-04-29T05:49:48.668Z,100.00
2023-04-29T05:52:16.928Z,100.00
2023-04-29T05:54:45.079Z,100.00
2023-04-29T05:57:14.612Z,100.00
2023-04-29T05:59:42.842Z,100.00
2023-04-29T06:02:11.950Z,100.00
2023-04-29T06:04:41.799Z,100.00
2023-04-29T06:07:10.481Z,100.00
2023-04-29T06:09:38.782Z,100.00
2023-04-29T06:12:07.256Z,100.00
2023-04-29T06:14:36.885Z,100.00
2023-04-29T06:17:05.185Z,100.00
2023-04-29T06:19:34.181Z,100.00
2023-04-29T06:22:02.367Z,100.00
2023-04-29T06:24:30.520Z,100.00
2023-04-29T06:26:58.722Z,100.00
2023-04-29T06:29:26.869Z,100.00
2023-04-29T06:31:56.518Z,100.00
2023-04-29T06:34:24.754Z,100.00
2023-04-29T06:36:52.943Z,100.00
2023-04-29T06:39:21.190Z,100.00
2023-04-29T06:41:49.354Z,100.00
2023-04-29T06:44:19.020Z,100.00
2023-04-29T06:46:47.459Z,100.00
2023-04-29T06:49:17.248Z,100.00
2023-04-29T06:51:45.371Z,100.00
2023-04-29T06:54:13.624Z,100.00
2023-04-29T06:56:41.874Z,100.00
2023-04-29T06:59:12.311Z,100.00
2023-04-29T07:01:43.431Z,100.00
2023-04-29T07:04:13.205Z,100.00
2023-04-29T07:06:46.914Z,100.00
2023-04-29T07:09:15.434Z,100.00
2023-04-29T07:11:43.745Z,100.00
2023-04-29T07:14:11.982Z,100.00
2023-04-29T07:16:40.214Z,100.00
2023-04-29T07:19:08.454Z,100.00
2023-04-29T07:21:36.625Z,100.00
2023-04-29T07:24:07.042Z,100.00
2023-04-29T07:26:35.263Z,100.00
2023-04-29T07:29:03.437Z,100.00
2023-04-29T07:31:31.755Z,100.00
2023-04-29T07:34:00.227Z,100.00
2023-04-29T07:36:28.948Z,100.00
2023-04-29T07:38:57.125Z,100.00
2023-04-29T07:41:26.745Z,100.00
2023-04-29T07:43:54.898Z,100.00
2023-04-29T07:46:23.607Z,100.00
2023-04-29T07:48:52.055Z,100.00
2023-04-29T07:51:20.159Z,100.00
2023-04-29T07:53:48.361Z,100.00
2023-04-29T07:56:16.551Z,75.27
2023-04-29T07:58:46.149Z,73.19
2023-04-29T08:01:15.700Z,72.21
2023-04-29T08:03:44.007Z,71.39
2023-04-29T08:06:12.549Z,69.75
2023-04-29T08:08:41.231Z,68.75
2023-04-29T08:11:09.446Z,65.72
2023-04-29T08:13:37.653Z,63.94
2023-04-29T08:16:07.704Z,66.10
2023-04-29T08:18:36.835Z,65.39
2023-04-29T08:21:05.267Z,63.47
2023-04-29T08:23:34.277Z,63.42
2023-04-29T08:26:03.567Z,64.87
2023-04-29T08:28:31.746Z,65.76
2023-04-29T08:30:59.975Z,65.55
2023-04-29T08:33:29.869Z,65.65
2023-04-29T08:36:03.592Z,65.29
2023-04-29T08:38:32.113Z,65.20
2023-04-29T08:41:00.261Z,67.42
2023-04-29T08:43:28.667Z,66.00
2023-04-29T08:45:59.256Z,66.26
2023-04-29T08:48:30.570Z,65.98
2023-04-29T08:50:59.675Z,68.01
2023-04-29T08:53:28.150Z,65.62
2023-04-29T08:55:59.641Z,65.09
2023-04-29T08:58:31.387Z,66.29
2023-04-29T09:00:59.727Z,65.70
2023-04-29T09:03:36.164Z,63.73
2023-04-29T09:06:06.583Z,62.69
2023-04-29T09:08:35.360Z,61.70
2023-04-29T09:11:04.068Z,62.59
2023-04-29T09:13:33.431Z,62.76
2023-04-29T09:16:01.681Z,62.74
2023-04-29T09:18:48.799Z,60.53
2023-04-29T09:21:21.723Z,62.60
2023-04-29T09:23:52.436Z,62.77
2023-04-29T09:26:22.423Z,63.43
2023-04-29T09:29:08.160Z,65.69
2023-04-29T09:31:36.939Z,64.84
2023-04-29T09:34:06.606Z,65.49
2023-04-29T09:36:40.634Z,62.22
2023-04-29T09:39:12.640Z,61.06
2023-04-29T09:41:58.117Z,62.23
2023-04-29T09:44:28.773Z,61.93
2023-04-29T09:46:58.518Z,59.31
2023-04-29T09:49:29.519Z,60.00
2023-04-29T09:51:59.785Z,59.19
2023-04-29T09:54:30.670Z,56.64
2023-04-29T09:57:00.248Z,60.37
2023-04-29T09:59:28.467Z,60.03
2023-04-29T10:01:58.596Z,57.77
2023-04-29T10:04:29.518Z,58.18
2023-04-29T10:06:58.103Z,56.30
2023-04-29T10:09:26.320Z,58.17
2023-04-29T10:11:55.448Z,55.75
2023-04-29T10:14:25.872Z,57.75
2023-04-29T10:17:02.740Z,55.45
2023-04-29T10:19:36.678Z,54.88
2023-04-29T10:22:11.092Z,54.54
2023-04-29T10:24:40.836Z,54.76
2023-04-29T10:27:09.864Z,54.62
2023-04-29T10:29:39.980Z,52.73
2023-04-29T10:32:11.219Z,53.29
2023-04-29T10:34:40.954Z,55.32
2023-04-29T10:37:11.518Z,56.07
2023-04-29T10:39:48.692Z,55.61
2023-04-29T10:42:27.676Z,52.64
2023-04-29T10:45:21.094Z,54.06
2023-04-29T10:48:14.507Z,51.09
2023-04-29T10:51:03.671Z,53.29
2023-04-29T10:53:31.967Z,53.09
2023-04-29T10:56:06.979Z,54.29
2023-04-29T10:58:40.742Z,53.33
2023-04-29T11:01:11.618Z,53.70
2023-04-29T11:03:55.246Z,54.30
2023-04-29T11:06:27.076Z,55.51
2023-04-29T11:09:05.858Z,56.04
2023-04-29T11:12:00.695Z,57.34
2023-04-29T11:14:32.768Z,58.32
2023-04-29T11:17:02.876Z,58.98
2023-04-29T11:19:35.748Z,59.77
2023-04-29T11:22:14.346Z,62.08
2023-04-29T11:24:53.681Z,63.02
2023-04-29T11:27:25.712Z,70.16
2023-04-29T11:32:41.630Z,79.82
2023-04-29T11:41:15.782Z,65.33
2023-04-29T11:43:47.077Z,60.63
2023-04-29T11:46:16.119Z,54.98
2023-04-29T11:48:48.958Z,59.71
2023-04-29T11:51:17.917Z,62.56
2023-04-29T11:53:47.037Z,57.94
2023-04-29T11:56:16.849Z,58.81
2023-04-29T11:58:45.737Z,54.32
2023-04-29T12:01:14.004Z,54.70
2023-04-29T12:03:45.356Z,52.56
2023-04-29T12:06:15.131Z,54.16
2023-04-29T12:08:43.515Z,54.92
2023-04-29T12:11:11.740Z,54.16
2023-04-29T12:13:42.022Z,53.02
2023-04-29T12:16:10.904Z,49.53
2023-04-29T12:18:39.339Z,52.12
2023-04-29T12:21:08.052Z,50.82
2023-04-29T12:23:37.734Z,48.59
2023-04-29T12:26:06.037Z,48.47
2023-04-29T12:28:35.068Z,47.32
2023-04-29T12:31:05.109Z,49.33
2023-04-29T12:33:33.257Z,47.53
2023-04-29T12:36:02.235Z,50.00
2023-04-29T12:38:32.477Z,49.02
2023-04-29T12:41:01.906Z,48.50
2023-04-29T12:43:30.868Z,46.22
2023-04-29T12:46:03.203Z,45.68
2023-04-29T12:48:33.893Z,47.29
2023-04-29T12:51:03.261Z,47.19
2023-04-29T12:53:32.230Z,48.71
2023-04-29T12:56:00.832Z,46.48
2023-04-29T12:58:30.717Z,46.59
2023-04-29T13:00:59.409Z,46.65
2023-04-29T13:03:28.381Z,46.55
2023-04-29T13:05:59.242Z,46.74
2023-04-29T13:08:27.550Z,48.87
2023-04-29T13:10:55.724Z,48.05
2023-04-29T13:13:29.145Z,48.15
2023-04-29T13:15:57.394Z,49.31
2023-04-29T13:23:57.445Z,50.24
2023-04-29T13:26:27.360Z,49.92
2023-04-29T13:28:55.463Z,51.74
2023-04-29T13:31:23.668Z,53.00
2023-04-29T13:33:53.966Z,52.53
2023-04-29T13:36:22.417Z,53.93
2023-04-29T13:38:55.047Z,52.73
2023-04-29T13:41:26.738Z,51.66
2023-04-29T13:43:58.012Z,53.15
2023-04-29T13:46:27.479Z,51.55
2023-04-29T14:07:52.261Z,53.46
2023-04-29T14:10:22.049Z,51.56
2023-04-29T14:12:50.157Z,52.71
2023-04-29T14:15:18.421Z,51.34
2023-04-29T14:17:46.709Z,50.93
2023-04-29T14:20:15.255Z,51.28
2023-04-29T14:22:43.606Z,49.66
2023-04-29T14:25:12.520Z,48.80
2023-04-29T14:27:42.161Z,49.67
2023-04-29T14:30:11.669Z,49.68
2023-04-29T14:32:39.789Z,50.70
2023-04-29T14:37:50.595Z,55.42
2023-04-29T14:49:01.210Z,66.13
2023-04-29T14:51:29.775Z,67.45
2023-04-29T14:53:57.981Z,70.93
2023-04-29T14:56:26.216Z,72.73
2023-04-29T14:58:54.426Z,75.09
2023-04-29T15:01:22.669Z,70.82
2023-04-29T15:03:50.909Z,67.11
2023-04-29T15:06:20.699Z,63.55
2023-04-29T15:08:48.924Z,57.72
2023-04-29T15:11:17.228Z,61.62
2023-04-29T15:13:45.405Z,61.62
2023-04-29T15:16:13.747Z,56.98
2023-04-29T15:18:45.526Z,57.50
2023-04-29T15:21:14.104Z,55.72
2023-04-29T15:23:43.762Z,51.89
2023-04-29T15:26:12.034Z,49.73
2023-04-29T15:28:40.590Z,48.18
2023-04-29T15:31:08.747Z,47.50
2023-04-29T15:33:36.930Z,45.45
2023-04-29T15:36:05.543Z,48.84
2023-04-29T15:38:33.769Z,50.55
2023-04-29T15:41:04.062Z,49.64
2023-04-29T15:43:33.309Z,48.05
2023-04-29T15:46:01.564Z,50.80
2023-04-29T15:48:29.696Z,54.50
2023-04-29T15:50:57.922Z,58.70
2023-04-29T15:53:26.200Z,62.00
2023-04-29T15:55:55.175Z,64.92
2023-04-29T15:58:24.759Z,67.05
2023-04-29T16:00:52.972Z,69.28
2023-04-29T16:03:21.362Z,69.99
2023-04-29T16:11:13.924Z,78.27
2023-04-29T16:13:43.449Z,79.67
2023-04-29T16:16:11.856Z,83.00
2023-04-29T16:18:40.068Z,87.13
2023-04-29T16:21:08.851Z,88.79
2023-04-29T16:23:37.088Z,90.25
2023-04-29T16:26:05.456Z,92.30
2023-04-29T16:31:19.324Z,97.39
2023-04-29T16:33:47.730Z,98.21
2023-04-29T16:36:15.850Z,99.98
2023-04-29T16:38:44.087Z,100.00
2023-04-29T16:41:12.222Z,100.00
2023-04-29T16:43:40.376Z,100.00
2023-04-29T16:46:08.934Z,100.00
2023-04-29T16:48:38.662Z,95.95
2023-04-29T16:51:07.027Z,97.39
2023-04-29T16:53:35.288Z,99.39
2023-04-29T16:56:03.440Z,100.00
2023-04-29T16:58:31.642Z,99.86
2023-04-29T17:00:59.889Z,98.41
2023-04-29T17:03:28.178Z,100.00
2023-04-29T17:05:57.828Z,98.93
2023-04-29T17:08:26.264Z,96.07
2023-04-29T17:10:54.684Z,98.42
2023-04-29T17:13:22.858Z,96.78
2023-04-29T17:15:51.546Z,95.80
2023-04-29T17:18:20.849Z,97.19
2023-04-29T17:20:50.843Z,96.68
2023-04-29T17:23:20.902Z,95.68
2023-04-29T17:25:49.106Z,97.94
2023-04-29T17:28:17.267Z,98.57
2023-04-29T17:30:45.489Z,100.00
2023-04-29T17:33:14.265Z,100.00
2023-04-29T17:35:42.438Z,100.00
2023-04-29T17:38:12.089Z,100.00
2023-04-29T17:40:41.675Z,99.31
2023-04-29T17:43:09.886Z,95.20
2023-04-29T17:45:41.671Z,94.99
2023-04-29T17:48:10.261Z,95.13
2023-04-29T17:50:39.423Z,95.03
2023-04-29T17:53:07.591Z,93.32
2023-04-29T17:55:35.849Z,93.28
2023-04-29T17:58:05.466Z,94.23
2023-04-29T18:00:35.101Z,94.14
2023-04-29T18:03:03.507Z,94.18
2023-04-29T18:05:31.955Z,92.48
2023-04-29T18:08:00.113Z,91.96
2023-04-29T18:10:28.351Z,93.82
2023-04-29T18:12:56.732Z,97.48
2023-04-29T18:15:26.399Z,99.56
2023-04-29T18:17:54.676Z,100.00
2023-04-29T18:20:23.053Z,100.00
2023-04-29T18:22:51.515Z,100.00
2023-04-29T18:25:19.646Z,100.00
2023-04-29T18:27:48.121Z,100.00
2023-04-29T18:30:16.295Z,100.00
2023-04-29T18:32:45.874Z,100.00
2023-04-29T18:35:14.204Z,100.00
2023-04-29T18:37:42.408Z,100.00
2023-04-29T18:40:11.580Z,100.00
2023-04-29T18:42:39.876Z,100.00
2023-04-29T18:45:09.427Z,97.50
2023-04-29T18:47:37.953Z,97.18
2023-04-29T18:50:08.642Z,97.08
2023-04-29T18:52:36.941Z,94.05
2023-04-29T18:55:06.096Z,95.71
2023-04-29T18:57:34.331Z,96.50
2023-04-29T19:00:03.887Z,99.45
2023-04-29T19:02:32.057Z,100.00
2023-04-29T19:05:02.857Z,100.00
2023-04-29T19:07:32.575Z,100.00
2023-04-29T19:10:02.505Z,100.00
2023-04-29T19:12:31.112Z,100.00
2023-04-29T19:14:59.295Z,100.00
2023-04-29T19:17:27.573Z,100.00
2023-04-29T19:19:56.012Z,100.00
2023-04-29T19:22:24.413Z,100.00
2023-04-29T19:24:53.991Z,100.00
2023-04-29T19:27:22.181Z,100.00
2023-04-29T19:29:50.379Z,100.00
2023-04-29T19:32:19.861Z,100.00
2023-04-29T19:34:48.243Z,100.00
2023-04-29T19:37:16.379Z,100.00
2023-04-29T19:39:44.533Z,100.00
2023-04-29T19:42:14.165Z,100.00
2023-04-29T19:44:42.741Z,100.00
2023-04-29T19:47:11.037Z,100.00
2023-04-29T19:49:39.631Z,100.00
2023-04-29T19:52:08.313Z,100.00
2023-04-29T19:54:37.164Z,100.00
2023-04-29T19:57:05.384Z,100.00
2023-04-29T19:59:34.978Z,100.00
2023-04-29T20:02:03.251Z,100.00
2023-04-29T20:04:31.424Z,100.00
2023-04-29T20:06:59.639Z,100.00
2023-04-29T20:09:27.859Z,100.00
2023-04-29T20:11:56.420Z,100.00
2023-04-29T20:14:24.593Z,100.00
2023-04-29T20:16:54.329Z,100.00
2023-04-29T20:19:22.561Z,97.61
2023-04-29T20:21:51.122Z,95.71
2023-04-29T20:24:19.340Z,100.00
2023-04-29T20:26:47.740Z,100.00
2023-04-29T20:29:15.912Z,100.00
2023-04-29T20:31:44.176Z,100.00
2023-04-29T20:34:13.728Z,100.00
2023-04-29T20:36:41.953Z,100.00
2023-04-29T20:39:10.897Z,100.00
2023-04-29T20:41:39.056Z,100.00
2023-04-29T20:44:07.262Z,99.26
2023-04-29T20:46:35.413Z,99.66
2023-04-29T20:49:04.711Z,97.93
2023-04-29T20:51:34.210Z,98.16
2023-04-29T20:54:02.281Z,97.43
2023-04-29T20:56:30.457Z,97.32
2023-04-29T20:58:59.742Z,97.99
2023-04-29T21:01:28.119Z,98.22
2023-04-29T21:03:56.282Z,99.63
2023-04-29T21:06:27.359Z,97.50
2023-04-29T21:08:57.098Z,97.53
2023-04-29T21:11:25.218Z,98.38
2023-04-29T21:13:53.426Z,99.50
2023-04-29T21:16:21.839Z,100.00
2023-04-29T21:18:50.138Z,100.00
2023-04-29T21:21:18.178Z,100.00
2023-04-29T21:23:46.340Z,100.00
2023-04-29T21:26:16.094Z,100.00
2023-04-29T21:28:44.388Z,100.00
2023-04-29T21:31:16.351Z,100.00
2023-04-29T21:33:44.781Z,100.00
2023-04-29T21:36:12.972Z,100.00
2023-04-29T21:38:42.924Z,100.00
2023-04-29T21:41:22.715Z,100.00
2023-04-29T21:43:51.840Z,100.00
2023-04-29T21:46:21.044Z,100.00
2023-04-29T21:48:49.304Z,100.00
2023-04-29T21:51:19.159Z,100.00
2023-04-29T21:53:47.339Z,100.00
2023-04-29T21:56:15.521Z,100.00
2023-04-29T21:58:45.406Z,100.00
2023-04-29T22:01:26.710Z,100.00
2023-04-29T22:03:55.367Z,100.00
2023-04-29T22:06:24.071Z,100.00
2023-04-29T22:08:52.353Z,100.00
2023-04-29T22:11:21.666Z,100.00
2023-04-29T22:13:51.323Z,100.00
2023-04-29T22:16:19.935Z,100.00
2023-04-29T22:18:48.301Z,100.00
2023-04-29T22:21:16.508Z,100.00
2023-04-29T22:23:45.000Z,100.00
2023-04-29T22:26:13.149Z,100.00
2023-04-29T22:28:41.301Z,100.00
2023-04-29T22:31:10.909Z,100.00
2023-04-29T22:33:39.164Z,100.00
2023-04-29T22:36:07.928Z,100.00
2023-04-29T22:38:37.933Z,100.00
2023-04-29T22:41:09.715Z,100.00
2023-04-29T22:43:37.828Z,100.00
2023-04-29T22:46:06.210Z,100.00
2023-04-29T22:48:35.920Z,100.00
2023-04-29T22:51:04.105Z,100.00
2023-04-29T22:53:32.314Z,100.00
2023-04-29T22:56:01.998Z,100.00
2023-04-29T22:58:30.193Z,100.00
2023-04-29T23:00:58.860Z,100.00
2023-04-29T23:03:27.975Z,100.00
2023-04-29T23:06:01.279Z,100.00
2023-04-29T23:08:29.764Z,100.00
2023-04-29T23:10:57.942Z,100.00
2023-04-29T23:13:26.083Z,100.00
2023-04-29T23:15:57.455Z,100.00
2023-04-29T23:18:25.635Z,100.00
2023-04-29T23:20:53.845Z,100.00
2023-04-29T23:23:23.425Z,100.00
2023-04-29T23:25:51.685Z,100.00
2023-04-29T23:28:19.884Z,100.00
2023-04-29T23:30:48.490Z,100.00
2023-04-29T23:33:16.757Z,100.00
2023-04-29T23:35:50.573Z,100.00
2023-04-29T23:38:18.896Z,100.00
2023-04-29T23:40:48.693Z,100.00
2023-04-29T23:43:16.883Z,100.00
2023-04-29T23:45:46.311Z,100.00
2023-04-29T23:48:15.796Z,100.00
2023-04-29T23:50:43.947Z,100.00
2023-04-29T23:53:12.220Z,100.00
2023-04-29T23:55:40.410Z,100.00
2023-04-29T23:58:09.974Z,100.00
